sensor_id;sensor_type;location;lat;lon;timestamp;pressure;altitude;pressure_sealevel;temperature;humidity
6194;BME280;3130;41.564;23.280;2023-08-21T00:01:50;98746.19;;;24.31;45.62
6194;BME280;3130;41.564;23.280;2023-08-21T00:04:18;98817.63;;;24.62;45.89
6194;BME280;3130;41.564;23.280;2023-08-21T00:06:45;98852.34;;;24.78;46.10
6194;BME280;3130;41.564;23.280;2023-08-21T00:09:12;98850.72;;;24.77;45.94
6194;BME280;3130;41.564;23.280;2023-08-21T00:11:39;98856.03;;;24.69;45.91
6194;BME280;3130;41.564;23.280;2023-08-21T00:14:06;98862.28;;;24.83;45.80
6194;BME280;3130;41.564;23.280;2023-08-21T00:16:34;98861.44;;;24.97;45.70
6194;BME280;3130;41.564;23.280;2023-08-21T00:19:01;98783.56;;;24.48;45.85
6194;BME280;3130;41.564;23.280;2023-08-21T00:21:28;98792.81;;;24.36;46.14
6194;BME280;3130;41.564;23.280;2023-08-21T00:23:56;98802.06;;;24.32;46.76
6194;BME280;3130;41.564;23.280;2023-08-21T00:26:23;98860.56;;;24.61;46.92
6194;BME280;3130;41.564;23.280;2023-08-21T00:28:50;98858.34;;;24.58;47.23
6194;BME280;3130;41.564;23.280;2023-08-21T00:31:17;98835.81;;;24.49;46.93
6194;BME280;3130;41.564;23.280;2023-08-21T00:33:45;98859.69;;;24.68;46.76
6194;BME280;3130;41.564;23.280;2023-08-21T00:36:12;98868.38;;;24.83;46.51
6194;BME280;3130;41.564;23.280;2023-08-21T00:38:39;98871.16;;;24.96;46.22
6194;BME280;3130;41.564;23.280;2023-08-21T00:41:06;98870.31;;;25.10;45.90
6194;BME280;3130;41.564;23.280;2023-08-21T00:43:34;98872.78;;;25.12;45.84
6194;BME280;3130;41.564;23.280;2023-08-21T00:46:01;98878.19;;;24.96;46.31
6194;BME280;3130;41.564;23.280;2023-08-21T00:48:28;98853.69;;;24.89;46.06
6194;BME280;3130;41.564;23.280;2023-08-21T00:50:58;98881.09;;;25.01;46.44
6194;BME280;3130;41.564;23.280;2023-08-21T00:53:25;98747.72;;;23.97;47.11
6194;BME280;3130;41.564;23.280;2023-08-21T00:55:52;98808.94;;;24.33;47.37
6194;BME280;3130;41.564;23.280;2023-08-21T00:58:20;98873.88;;;24.74;47.78
6194;BME280;3130;41.564;23.280;2023-08-21T01:00:48;98865.00;;;24.46;48.57
6194;BME280;3130;41.564;23.280;2023-08-21T01:03:17;98875.00;;;24.43;48.93
6194;BME280;3130;41.564;23.280;2023-08-21T01:05:44;98880.88;;;24.30;49.66
6194;BME280;3130;41.564;23.280;2023-08-21T01:08:16;98882.34;;;24.33;49.73
6194;BME280;3130;41.564;23.280;2023-08-21T01:10:51;98852.69;;;23.95;50.12
6194;BME280;3130;41.564;23.280;2023-08-21T01:13:26;98891.41;;;24.08;50.28
6194;BME280;3130;41.564;23.280;2023-08-21T01:15:58;98872.50;;;23.98;50.31
6194;BME280;3130;41.564;23.280;2023-08-21T01:18:26;98895.38;;;24.04;50.41
6194;BME280;3130;41.564;23.280;2023-08-21T01:20:55;98887.84;;;24.01;50.65
6194;BME280;3130;41.564;23.280;2023-08-21T01:23:33;98888.28;;;23.90;51.11
6194;BME280;3130;41.564;23.280;2023-08-21T01:26:02;98801.84;;;23.45;50.69
6194;BME280;3130;41.564;23.280;2023-08-21T01:28:29;98892.56;;;23.83;51.50
6194;BME280;3130;41.564;23.280;2023-08-21T01:31:06;98889.25;;;23.66;52.42
6194;BME280;3130;41.564;23.280;2023-08-21T01:33:37;98894.25;;;23.53;52.89
6194;BME280;3130;41.564;23.280;2023-08-21T01:36:05;98860.59;;;23.42;52.53
6194;BME280;3130;41.564;23.280;2023-08-21T01:38:34;98880.66;;;23.50;52.80
6194;BME280;3130;41.564;23.280;2023-08-21T01:41:02;98892.78;;;23.51;52.84
6194;BME280;3130;41.564;23.280;2023-08-21T01:43:29;98888.53;;;23.50;53.11
6194;BME280;3130;41.564;23.280;2023-08-21T01:45:56;98890.34;;;23.49;52.84
6194;BME280;3130;41.564;23.280;2023-08-21T01:48:24;98892.78;;;23.51;52.90
6194;BME280;3130;41.564;23.280;2023-08-21T01:50:51;98895.81;;;23.62;52.53
6194;BME280;3130;41.564;23.280;2023-08-21T01:53:18;98893.84;;;23.64;52.42
6194;BME280;3130;41.564;23.280;2023-08-21T01:55:46;98893.06;;;23.56;52.48
6194;BME280;3130;41.564;23.280;2023-08-21T01:58:13;98873.00;;;23.48;52.46
6194;BME280;3130;41.564;23.280;2023-08-21T02:00:40;98756.50;;;22.69;52.33
6194;BME280;3130;41.564;23.280;2023-08-21T02:03:08;98748.25;;;22.80;51.84
6194;BME280;3130;41.564;23.280;2023-08-21T02:05:38;98899.75;;;23.58;52.47
6194;BME280;3130;41.564;23.280;2023-08-21T02:08:06;98829.38;;;23.11;52.42
6194;BME280;3130;41.564;23.280;2023-08-21T02:10:33;98895.28;;;23.67;52.20
6194;BME280;3130;41.564;23.280;2023-08-21T02:13:02;98825.25;;;23.16;52.41
6194;BME280;3130;41.564;23.280;2023-08-21T02:15:29;98899.97;;;23.49;52.56
6194;BME280;3130;41.564;23.280;2023-08-21T02:17:56;98897.97;;;23.59;52.29
6194;BME280;3130;41.564;23.280;2023-08-21T02:20:23;98896.88;;;23.53;52.48
6194;BME280;3130;41.564;23.280;2023-08-21T02:22:50;98774.16;;;22.67;52.67
6194;BME280;3130;41.564;23.280;2023-08-21T02:25:18;98890.72;;;23.39;53.23
6194;BME280;3130;41.564;23.280;2023-08-21T02:27:45;98806.56;;;22.89;53.42
6194;BME280;3130;41.564;23.280;2023-08-21T02:30:13;98802.19;;;22.81;53.32
6194;BME280;3130;41.564;23.280;2023-08-21T02:32:41;98884.38;;;23.33;53.40
6194;BME280;3130;41.564;23.280;2023-08-21T02:35:08;98867.34;;;23.37;53.00
6194;BME280;3130;41.564;23.280;2023-08-21T02:37:36;98801.22;;;22.82;53.22
6194;BME280;3130;41.564;23.280;2023-08-21T02:40:06;98809.72;;;22.76;53.78
6194;BME280;3130;41.564;23.280;2023-08-21T02:42:35;98869.72;;;23.24;53.50
6194;BME280;3130;41.564;23.280;2023-08-21T02:45:02;98867.22;;;23.31;53.24
6194;BME280;3130;41.564;23.280;2023-08-21T02:47:36;98897.78;;;23.30;53.31
6194;BME280;3130;41.564;23.280;2023-08-21T02:50:04;98881.03;;;23.17;53.42
6194;BME280;3130;41.564;23.280;2023-08-21T02:52:31;98819.66;;;22.89;53.32
6194;BME280;3130;41.564;23.280;2023-08-21T02:54:59;98909.91;;;23.31;53.52
6194;BME280;3130;41.564;23.280;2023-08-21T02:57:26;98843.81;;;22.99;53.37
6194;BME280;3130;41.564;23.280;2023-08-21T02:59:54;98778.81;;;22.49;53.49
6194;BME280;3130;41.564;23.280;2023-08-21T03:02:21;98904.53;;;23.25;53.98
6194;BME280;3130;41.564;23.280;2023-08-21T03:04:50;98898.72;;;23.15;53.85
6194;BME280;3130;41.564;23.280;2023-08-21T03:07:18;98919.09;;;23.27;53.91
6194;BME280;3130;41.564;23.280;2023-08-21T03:09:46;98917.81;;;23.23;53.76
6194;BME280;3130;41.564;23.280;2023-08-21T03:12:13;98924.28;;;23.35;53.56
6194;BME280;3130;41.564;23.280;2023-08-21T03:14:40;98927.94;;;23.26;54.10
6194;BME280;3130;41.564;23.280;2023-08-21T03:17:08;98885.50;;;23.08;53.76
6194;BME280;3130;41.564;23.280;2023-08-21T03:19:35;98927.09;;;23.26;53.98
6194;BME280;3130;41.564;23.280;2023-08-21T03:22:03;98813.13;;;22.54;53.83
6194;BME280;3130;41.564;23.280;2023-08-21T03:24:31;98915.09;;;23.01;54.92
6194;BME280;3130;41.564;23.280;2023-08-21T03:26:58;98928.00;;;23.10;55.16
6194;BME280;3130;41.564;23.280;2023-08-21T03:29:25;98920.53;;;22.75;56.57
6194;BME280;3130;41.564;23.280;2023-08-21T03:31:53;98940.16;;;22.79;56.63
6194;BME280;3130;41.564;23.280;2023-08-21T03:34:20;98925.75;;;22.91;56.05
6194;BME280;3130;41.564;23.280;2023-08-21T03:36:47;98920.59;;;22.67;57.00
6194;BME280;3130;41.564;23.280;2023-08-21T03:39:16;98944.28;;;22.66;57.62
6194;BME280;3130;41.564;23.280;2023-08-21T03:41:43;98950.34;;;22.50;58.21
6194;BME280;3130;41.564;23.280;2023-08-21T03:44:10;98951.66;;;22.54;58.15
6194;BME280;3130;41.564;23.280;2023-08-21T03:46:37;98958.19;;;22.42;58.32
6194;BME280;3130;41.564;23.280;2023-08-21T03:49:05;98952.16;;;22.42;58.74
6194;BME280;3130;41.564;23.280;2023-08-21T03:51:32;98955.59;;;22.42;58.79
6194;BME280;3130;41.564;23.280;2023-08-21T03:53:59;98884.38;;;21.93;58.81
6194;BME280;3130;41.564;23.280;2023-08-21T03:56:27;98879.31;;;21.99;58.71
6194;BME280;3130;41.564;23.280;2023-08-21T03:58:55;98948.25;;;22.38;59.08
6194;BME280;3130;41.564;23.280;2023-08-21T04:01:22;98943.47;;;22.26;59.03
6194;BME280;3130;41.564;23.280;2023-08-21T04:03:49;98876.53;;;21.77;58.83
6194;BME280;3130;41.564;23.280;2023-08-21T04:06:16;98874.44;;;21.88;58.99
6194;BME280;3130;41.564;23.280;2023-08-21T04:08:43;98953.13;;;22.41;58.86
6194;BME280;3130;41.564;23.280;2023-08-21T04:11:11;98966.22;;;22.41;58.96
6194;BME280;3130;41.564;23.280;2023-08-21T04:13:39;98791.81;;;21.32;59.37
6194;BME280;3130;41.564;23.280;2023-08-21T04:16:07;98960.31;;;22.31;59.60
6194;BME280;3130;41.564;23.280;2023-08-21T04:18:36;98965.72;;;22.38;59.33
6194;BME280;3130;41.564;23.280;2023-08-21T04:21:07;98827.72;;;21.53;59.36
6194;BME280;3130;41.564;23.280;2023-08-21T04:23:37;98881.75;;;21.93;59.13
6194;BME280;3130;41.564;23.280;2023-08-21T04:26:06;98795.75;;;21.51;59.45
6194;BME280;3130;41.564;23.280;2023-08-21T04:28:35;98857.94;;;21.80;59.56
6194;BME280;3130;41.564;23.280;2023-08-21T04:31:06;98937.13;;;22.36;59.74
6194;BME280;3130;41.564;23.280;2023-08-21T04:33:34;98835.56;;;21.61;59.62
6194;BME280;3130;41.564;23.280;2023-08-21T04:36:01;98905.13;;;22.10;59.62
6194;BME280;3130;41.564;23.280;2023-08-21T04:38:28;98947.75;;;22.50;59.02
6194;BME280;3130;41.564;23.280;2023-08-21T04:40:55;98912.44;;;22.31;59.01
6194;BME280;3130;41.564;23.280;2023-08-21T04:43:23;98959.16;;;22.65;59.29
6194;BME280;3130;41.564;23.280;2023-08-21T04:45:51;98921.75;;;22.49;58.86
6194;BME280;3130;41.564;23.280;2023-08-21T04:48:20;98886.81;;;22.34;58.79
6194;BME280;3130;41.564;23.280;2023-08-21T04:50:48;98843.22;;;22.19;58.08
6194;BME280;3130;41.564;23.280;2023-08-21T04:53:15;98968.56;;;22.98;57.84
6194;BME280;3130;41.564;23.280;2023-08-21T04:55:42;98977.72;;;23.02;58.12
6194;BME280;3130;41.564;23.280;2023-08-21T04:58:09;98866.06;;;22.48;57.89
6194;BME280;3130;41.564;23.280;2023-08-21T05:00:36;98978.00;;;23.23;57.41
6194;BME280;3130;41.564;23.280;2023-08-21T05:03:06;98986.13;;;23.36;57.55
6194;BME280;3130;41.564;23.280;2023-08-21T05:05:36;98972.03;;;23.45;57.04
6194;BME280;3130;41.564;23.280;2023-08-21T05:08:04;98983.06;;;23.63;56.80
6194;BME280;3130;41.564;23.280;2023-08-21T05:10:31;98945.59;;;23.54;56.79
6194;BME280;3130;41.564;23.280;2023-08-21T05:12:58;98982.13;;;23.86;56.25
6194;BME280;3130;41.564;23.280;2023-08-21T05:15:25;98990.25;;;23.91;56.56
6194;BME280;3130;41.564;23.280;2023-08-21T05:17:52;98859.19;;;23.32;56.41
6194;BME280;3130;41.564;23.280;2023-08-21T05:22:48;99000.47;;;24.31;nan
6194;BME280;3130;41.564;23.280;2023-08-21T05:25:15;99002.06;;;24.40;nan
6194;BME280;3130;41.564;23.280;2023-08-21T05:27:43;98928.63;;;24.03;nan
6194;BME280;3130;41.564;23.280;2023-08-21T05:30:11;98931.81;;;24.13;nan
6194;BME280;3130;41.564;23.280;2023-08-21T05:32:39;98962.84;;;24.47;nan
6194;BME280;3130;41.564;23.280;2023-08-21T05:35:06;98984.59;;;24.69;nan
6194;BME280;3130;41.564;23.280;2023-08-21T05:37:34;98890.31;;;24.17;nan
6194;BME280;3130;41.564;23.280;2023-08-21T05:40:04;98896.78;;;24.29;nan
6194;BME280;3130;41.564;23.280;2023-08-21T05:42:33;98817.72;;;23.88;nan
6194;BME280;3130;41.564;23.280;2023-08-21T05:45:00;98928.06;;;24.67;nan
6194;BME280;3130;41.564;23.280;2023-08-21T05:47:27;98970.97;;;25.03;nan
6194;BME280;3130;41.564;23.280;2023-08-21T05:49:54;98810.91;;;24.16;nan
6194;BME280;3130;41.564;23.280;2023-08-21T05:52:22;98940.38;;;24.95;nan
6194;BME280;3130;41.564;23.280;2023-08-21T05:54:49;98974.72;;;25.23;nan
6194;BME280;3130;41.564;23.280;2023-08-21T05:57:18;98895.69;;;24.74;nan
6194;BME280;3130;41.564;23.280;2023-08-21T05:59:46;98923.19;;;24.93;nan
6194;BME280;3130;41.564;23.280;2023-08-21T06:02:13;98994.16;;;25.43;nan
6194;BME280;3130;41.564;23.280;2023-08-21T06:04:41;98975.69;;;25.36;nan
6194;BME280;3130;41.564;23.280;2023-08-21T06:07:09;98996.50;;;25.52;nan
6194;BME280;3130;41.564;23.280;2023-08-21T06:09:36;98976.34;;;25.38;nan
6194;BME280;3130;41.564;23.280;2023-08-21T06:12:04;98920.13;;;25.18;nan
6194;BME280;3130;41.564;23.280;2023-08-21T06:14:33;98999.44;;;25.78;nan
6194;BME280;3130;41.564;23.280;2023-08-21T06:17:16;98969.59;;;25.64;nan
6194;BME280;3130;41.564;23.280;2023-08-21T06:19:53;98960.56;;;25.73;nan
6194;BME280;3130;41.564;23.280;2023-08-21T06:22:26;98958.81;;;25.95;nan
6194;BME280;3130;41.564;23.280;2023-08-21T06:25:06;99002.03;;;26.49;nan
6194;BME280;3130;41.564;23.280;2023-08-21T06:27:48;98840.66;;;25.66;nan
6194;BME280;3130;41.564;23.280;2023-08-21T06:30:22;98843.66;;;26.05;nan
6194;BME280;3130;41.564;23.280;2023-08-21T06:32:53;99002.63;;;27.26;nan
6194;BME280;3130;41.564;23.280;2023-08-21T06:35:35;98837.94;;;26.56;nan
6194;BME280;3130;41.564;23.280;2023-08-21T06:38:07;98918.09;;;27.21;nan
6194;BME280;3130;41.564;23.280;2023-08-21T06:40:35;98860.28;;;27.07;nan
6194;BME280;3130;41.564;23.280;2023-08-21T06:43:03;98850.81;;;27.19;nan
6194;BME280;3130;41.564;23.280;2023-08-21T06:45:33;99003.00;;;28.30;nan
6194;BME280;3130;41.564;23.280;2023-08-21T06:48:00;98938.63;;;28.11;nan
6194;BME280;3130;41.564;23.280;2023-08-21T06:50:28;98849.56;;;27.74;nan
6194;BME280;3130;41.564;23.280;2023-08-21T06:52:55;98986.19;;;28.82;nan
6194;BME280;3130;41.564;23.280;2023-08-21T06:55:22;99002.41;;;29.05;nan
6194;BME280;3130;41.564;23.280;2023-08-21T06:57:50;98901.88;;;28.68;nan
6194;BME280;3130;41.564;23.280;2023-08-21T07:00:19;98995.41;;;29.50;nan
6194;BME280;3130;41.564;23.280;2023-08-21T07:02:48;98997.69;;;29.83;nan
6194;BME280;3130;41.564;23.280;2023-08-21T07:05:16;98924.00;;;29.56;nan
6194;BME280;3130;41.564;23.280;2023-08-21T07:07:45;98837.34;;;29.14;nan
6194;BME280;3130;41.564;23.280;2023-08-21T07:10:12;98940.16;;;30.10;nan
6194;BME280;3130;41.564;23.280;2023-08-21T07:12:39;98934.59;;;30.18;nan
6194;BME280;3130;41.564;23.280;2023-08-21T07:15:07;98957.75;;;30.29;nan
6194;BME280;3130;41.564;23.280;2023-08-21T07:17:35;98925.16;;;30.28;nan
6194;BME280;3130;41.564;23.280;2023-08-21T07:20:05;98979.56;;;30.97;nan
6194;BME280;3130;41.564;23.280;2023-08-21T07:22:32;98944.34;;;30.90;nan
6194;BME280;3130;41.564;23.280;2023-08-21T07:24:59;98881.63;;;30.67;nan
6194;BME280;3130;41.564;23.280;2023-08-21T07:27:29;98978.34;;;31.36;nan
6194;BME280;3130;41.564;23.280;2023-08-21T07:29:57;98983.91;;;31.64;nan
6194;BME280;3130;41.564;23.280;2023-08-21T07:32:24;98931.47;;;31.48;nan
6194;BME280;3130;41.564;23.280;2023-08-21T07:34:52;98950.84;;;31.66;nan
6194;BME280;3130;41.564;23.280;2023-08-21T07:37:21;98943.22;;;32.40;nan
6194;BME280;3130;41.564;23.280;2023-08-21T07:39:48;98974.22;;;33.03;nan
6194;BME280;3130;41.564;23.280;2023-08-21T07:42:16;98971.81;;;33.64;nan
6194;BME280;3130;41.564;23.280;2023-08-21T07:44:44;98985.81;;;34.76;nan
6194;BME280;3130;41.564;23.280;2023-08-21T07:47:12;98960.56;;;34.62;nan
6194;BME280;3130;41.564;23.280;2023-08-21T07:49:39;98873.09;;;33.65;nan
6194;BME280;3130;41.564;23.280;2023-08-21T07:52:06;98963.06;;;34.08;nan
6194;BME280;3130;41.564;23.280;2023-08-21T07:54:35;98973.63;;;34.03;nan
6194;BME280;3130;41.564;23.280;2023-08-21T07:57:03;98907.22;;;33.68;nan
6194;BME280;3130;41.564;23.280;2023-08-21T07:59:30;98976.09;;;34.20;nan
6194;BME280;3130;41.564;23.280;2023-08-21T08:02:00;98926.06;;;33.95;nan
6194;BME280;3130;41.564;23.280;2023-08-21T08:04:28;98920.38;;;34.03;nan
6194;BME280;3130;41.564;23.280;2023-08-21T08:06:55;98951.16;;;34.43;nan
6194;BME280;3130;41.564;23.280;2023-08-21T08:09:22;98813.00;;;33.53;nan
6194;BME280;3130;41.564;23.280;2023-08-21T08:11:52;98893.50;;;34.04;nan
6194;BME280;3130;41.564;23.280;2023-08-21T08:14:19;98960.59;;;34.50;nan
6194;BME280;3130;41.564;23.280;2023-08-21T08:16:46;98944.94;;;34.87;nan
6194;BME280;3130;41.564;23.280;2023-08-21T08:19:13;98924.22;;;34.94;nan
6194;BME280;3130;41.564;23.280;2023-08-21T08:21:40;98882.00;;;34.86;nan
6194;BME280;3130;41.564;23.280;2023-08-21T08:24:07;98908.69;;;35.07;nan
6194;BME280;3130;41.564;23.280;2023-08-21T08:26:35;98909.00;;;35.11;nan
6194;BME280;3130;41.564;23.280;2023-08-21T08:29:03;98795.88;;;34.47;nan
6194;BME280;3130;41.564;23.280;2023-08-21T08:31:30;98888.72;;;35.10;nan
6194;BME280;3130;41.564;23.280;2023-08-21T08:33:58;98856.56;;;35.00;nan
6194;BME280;3130;41.564;23.280;2023-08-21T08:36:25;98804.91;;;34.46;nan
6194;BME280;3130;41.564;23.280;2023-08-21T08:38:52;98918.78;;;35.05;nan
6194;BME280;3130;41.564;23.280;2023-08-21T08:41:24;98913.53;;;34.94;nan
6194;BME280;3130;41.564;23.280;2023-08-21T08:43:56;98795.22;;;34.19;nan
6194;BME280;3130;41.564;23.280;2023-08-21T08:46:27;98857.28;;;34.74;nan
6194;BME280;3130;41.564;23.280;2023-08-21T08:48:56;98859.72;;;34.75;nan
6194;BME280;3130;41.564;23.280;2023-08-21T08:51:24;98778.94;;;34.15;nan
6194;BME280;3130;41.564;23.280;2023-08-21T08:53:52;98799.56;;;34.41;nan
6194;BME280;3130;41.564;23.280;2023-08-21T08:56:19;98803.66;;;34.49;nan
6194;BME280;3130;41.564;23.280;2023-08-21T08:58:46;98831.00;;;34.82;nan
6194;BME280;3130;41.564;23.280;2023-08-21T09:01:14;98813.28;;;34.71;nan
6194;BME280;3130;41.564;23.280;2023-08-21T09:03:44;98900.38;;;35.25;nan
6194;BME280;3130;41.564;23.280;2023-08-21T09:06:12;98818.00;;;34.86;nan
6194;BME280;3130;41.564;23.280;2023-08-21T09:08:47;98887.19;;;35.40;nan
6194;BME280;3130;41.564;23.280;2023-08-21T09:11:20;98798.78;;;34.84;nan
6194;BME280;3130;41.564;23.280;2023-08-21T09:13:49;98773.97;;;34.83;nan
6194;BME280;3130;41.564;23.280;2023-08-21T09:16:17;98767.41;;;34.69;nan
6194;BME280;3130;41.564;23.280;2023-08-21T09:18:49;98889.94;;;35.45;nan
6194;BME280;3130;41.564;23.280;2023-08-21T09:21:17;98784.00;;;34.98;nan
6194;BME280;3130;41.564;23.280;2023-08-21T09:23:44;98823.31;;;35.28;nan
6194;BME280;3130;41.564;23.280;2023-08-21T09:26:18;98854.59;;;35.59;nan
6194;BME280;3130;41.564;23.280;2023-08-21T09:28:46;98797.28;;;35.40;nan
6194;BME280;3130;41.564;23.280;2023-08-21T09:31:13;98860.63;;;35.76;nan
6194;BME280;3130;41.564;23.280;2023-08-21T09:33:40;98829.06;;;35.68;nan
6194;BME280;3130;41.564;23.280;2023-08-21T09:36:09;98843.53;;;35.77;nan
6194;BME280;3130;41.564;23.280;2023-08-21T09:38:38;98801.88;;;35.50;nan
6194;BME280;3130;41.564;23.280;2023-08-21T09:41:07;98710.75;;;35.05;nan
6194;BME280;3130;41.564;23.280;2023-08-21T09:43:41;98849.28;;;35.91;nan
6194;BME280;3130;41.564;23.280;2023-08-21T09:46:08;98839.56;;;36.06;nan
6194;BME280;3130;41.564;23.280;2023-08-21T09:48:36;98838.06;;;36.20;nan
6194;BME280;3130;41.564;23.280;2023-08-21T09:51:04;98817.28;;;36.32;nan
6194;BME280;3130;41.564;23.280;2023-08-21T09:53:32;98824.75;;;36.30;nan
6194;BME280;3130;41.564;23.280;2023-08-21T09:56:00;98812.66;;;36.22;nan
6194;BME280;3130;41.564;23.280;2023-08-21T09:58:28;98816.25;;;36.38;nan
6194;BME280;3130;41.564;23.280;2023-08-21T10:00:57;98810.97;;;36.48;nan
6194;BME280;3130;41.564;23.280;2023-08-21T10:03:25;98823.91;;;36.61;nan
6194;BME280;3130;41.564;23.280;2023-08-21T10:05:54;98814.50;;;36.53;nan
6194;BME280;3130;41.564;23.280;2023-08-21T10:08:25;98812.34;;;36.50;nan
6194;BME280;3130;41.564;23.280;2023-08-21T10:10:54;98795.16;;;36.41;nan
6194;BME280;3130;41.564;23.280;2023-08-21T10:13:21;98806.25;;;36.60;nan
6194;BME280;3130;41.564;23.280;2023-08-21T10:15:49;98798.25;;;36.70;nan
6194;BME280;3130;41.564;23.280;2023-08-21T10:18:20;98798.63;;;36.93;nan
6194;BME280;3130;41.564;23.280;2023-08-21T10:20:48;98789.75;;;36.88;nan
6194;BME280;3130;41.564;23.280;2023-08-21T10:23:25;98771.28;;;36.71;nan
6194;BME280;3130;41.564;23.280;2023-08-21T10:25:57;98772.16;;;36.92;nan
6194;BME280;3130;41.564;23.280;2023-08-21T10:28:25;98793.06;;;37.10;nan
6194;BME280;3130;41.564;23.280;2023-08-21T10:31:32;98789.34;;;37.16;nan
6194;BME280;3130;41.564;23.280;2023-08-21T10:34:01;98776.75;;;37.16;nan
6194;BME280;3130;41.564;23.280;2023-08-21T10:39:39;98775.97;;;37.11;nan
6194;BME280;3130;41.564;23.280;2023-08-21T10:42:10;98772.09;;;36.87;nan
6194;BME280;3130;41.564;23.280;2023-08-21T10:44:49;98767.56;;;36.87;nan
6194;BME280;3130;41.564;23.280;2023-08-21T10:47:19;98739.69;;;36.73;nan
6194;BME280;3130;41.564;23.280;2023-08-21T10:49:47;98668.34;;;36.13;nan
6194;BME280;3130;41.564;23.280;2023-08-21T10:52:20;98759.47;;;36.67;nan
6194;BME280;3130;41.564;23.280;2023-08-21T10:54:50;98741.25;;;36.59;nan
6194;BME280;3130;41.564;23.280;2023-08-21T10:57:19;98764.34;;;36.90;nan
6194;BME280;3130;41.564;23.280;2023-08-21T10:59:54;98733.28;;;36.69;nan
6194;BME280;3130;41.564;23.280;2023-08-21T11:02:21;98750.66;;;36.67;nan
6194;BME280;3130;41.564;23.280;2023-08-21T11:04:49;98724.41;;;36.54;nan
6194;BME280;3130;41.564;23.280;2023-08-21T11:07:16;98741.84;;;36.76;nan
6194;BME280;3130;41.564;23.280;2023-08-21T11:09:44;98717.25;;;36.69;nan
6194;BME280;3130;41.564;23.280;2023-08-21T11:12:12;98727.34;;;36.57;nan
6194;BME280;3130;41.564;23.280;2023-08-21T11:14:41;98730.38;;;36.76;nan
6194;BME280;3130;41.564;23.280;2023-08-21T11:17:09;98728.06;;;37.04;nan
6194;BME280;3130;41.564;23.280;2023-08-21T11:19:37;98730.47;;;37.11;nan
6194;BME280;3130;41.564;23.280;2023-08-21T11:22:05;98586.16;;;36.34;nan
6194;BME280;3130;41.564;23.280;2023-08-21T11:24:40;98721.66;;;37.30;nan
6194;BME280;3130;41.564;23.280;2023-08-21T11:27:08;98664.31;;;36.91;nan
6194;BME280;3130;41.564;23.280;2023-08-21T11:29:41;98717.09;;;37.21;nan
6194;BME280;3130;41.564;23.280;2023-08-21T11:32:10;98704.78;;;37.20;nan
6194;BME280;3130;41.564;23.280;2023-08-21T11:34:37;98705.34;;;37.32;nan
6194;BME280;3130;41.564;23.280;2023-08-21T11:37:04;98664.13;;;37.13;nan
6194;BME280;3130;41.564;23.280;2023-08-21T11:39:42;98569.56;;;36.42;nan
6194;BME280;3130;41.564;23.280;2023-08-21T11:42:11;98553.78;;;36.26;nan
6194;BME280;3130;41.564;23.280;2023-08-21T11:44:49;98687.94;;;37.24;nan
6194;BME280;3130;41.564;23.280;2023-08-21T11:47:19;98647.00;;;37.14;nan
6194;BME280;3130;41.564;23.280;2023-08-21T11:49:47;98692.25;;;37.40;nan
6194;BME280;3130;41.564;23.280;2023-08-21T11:52:18;98544.50;;;36.63;nan
6194;BME280;3130;41.564;23.280;2023-08-21T11:54:48;98642.47;;;37.39;nan
6194;BME280;3130;41.564;23.280;2023-08-21T11:57:16;98606.84;;;37.19;nan
6194;BME280;3130;41.564;23.280;2023-08-21T11:59:50;98645.88;;;37.34;nan
6194;BME280;3130;41.564;23.280;2023-08-21T12:02:21;98649.38;;;37.30;nan
6194;BME280;3130;41.564;23.280;2023-08-21T12:04:52;98586.50;;;36.78;nan
6194;BME280;3130;41.564;23.280;2023-08-21T12:07:20;98532.97;;;36.43;nan
6194;BME280;3130;41.564;23.280;2023-08-21T12:09:47;98618.38;;;37.04;nan
6194;BME280;3130;41.564;23.280;2023-08-21T12:12:15;98683.63;;;37.28;nan
6194;BME280;3130;41.564;23.280;2023-08-21T12:14:42;98583.81;;;36.63;nan
6194;BME280;3130;41.564;23.280;2023-08-21T12:17:11;98669.22;;;37.39;nan
6194;BME280;3130;41.564;23.280;2023-08-21T12:19:39;98524.19;;;36.62;nan
6194;BME280;3130;41.564;23.280;2023-08-21T12:22:07;98656.59;;;37.54;nan
6194;BME280;3130;41.564;23.280;2023-08-21T12:24:35;98663.00;;;37.73;nan
6194;BME280;3130;41.564;23.280;2023-08-21T12:27:03;98589.72;;;37.39;nan
6194;BME280;3130;41.564;23.280;2023-08-21T12:29:30;98503.34;;;36.94;nan
6194;BME280;3130;41.564;23.280;2023-08-21T12:31:57;98637.81;;;37.89;nan
6194;BME280;3130;41.564;23.280;2023-08-21T12:34:26;98629.75;;;37.89;nan
6194;BME280;3130;41.564;23.280;2023-08-21T12:36:53;98610.75;;;37.91;nan
6194;BME280;3130;41.564;23.280;2023-08-21T12:39:21;98636.41;;;38.07;nan
6194;BME280;3130;41.564;23.280;2023-08-21T12:41:48;98638.31;;;38.01;nan
6194;BME280;3130;41.564;23.280;2023-08-21T12:44:16;98631.38;;;37.90;nan
6194;BME280;3130;41.564;23.280;2023-08-21T12:46:43;98495.81;;;37.11;nan
6194;BME280;3130;41.564;23.280;2023-08-21T12:49:10;98504.59;;;37.27;nan
6194;BME280;3130;41.564;23.280;2023-08-21T12:51:39;98633.94;;;38.20;nan
6194;BME280;3130;41.564;23.280;2023-08-21T12:54:07;98618.94;;;38.24;nan
6194;BME280;3130;41.564;23.280;2023-08-21T12:56:34;98502.16;;;37.50;nan
6194;BME280;3130;41.564;23.280;2023-08-21T12:59:02;98469.53;;;37.28;nan
6194;BME280;3130;41.564;23.280;2023-08-21T13:01:29;98489.09;;;37.24;nan
6194;BME280;3130;41.564;23.280;2023-08-21T13:03:57;98518.22;;;37.35;nan
6194;BME280;3130;41.564;23.280;2023-08-21T13:06:24;98524.38;;;37.45;nan
6194;BME280;3130;41.564;23.280;2023-08-21T13:08:53;98614.38;;;38.15;nan
6194;BME280;3130;41.564;23.280;2023-08-21T13:11:21;98614.38;;;38.25;nan
6194;BME280;3130;41.564;23.280;2023-08-21T13:13:48;98533.91;;;37.76;nan
6194;BME280;3130;41.564;23.280;2023-08-21T13:16:15;98603.94;;;38.18;nan
6194;BME280;3130;41.564;23.280;2023-08-21T13:18:43;98466.63;;;37.25;nan
6194;BME280;3130;41.564;23.280;2023-08-21T13:21:10;98591.56;;;38.22;nan
6194;BME280;3130;41.564;23.280;2023-08-21T13:23:37;98523.72;;;37.78;nan
6194;BME280;3130;41.564;23.280;2023-08-21T13:26:06;98589.66;;;38.33;nan
6194;BME280;3130;41.564;23.280;2023-08-21T13:28:33;98460.00;;;37.70;nan
6194;BME280;3130;41.564;23.280;2023-08-21T13:31:00;98589.00;;;38.55;nan
6194;BME280;3130;41.564;23.280;2023-08-21T13:33:28;98498.00;;;37.77;nan
6194;BME280;3130;41.564;23.280;2023-08-21T13:35:56;98538.91;;;38.03;nan
6194;BME280;3130;41.564;23.280;2023-08-21T13:38:23;98554.13;;;38.07;nan